JST89 WADD-YWLM
Flight info
| Callsign | JST89 |
|---|---|
| Flight time | N/A |
| Altitude | 33000 |
| Route | ATMAP DCT 13S120E DCT AVGEM DCT DOPUK DCT 20S130E DCT GEKKO DCT 23S135E/N0438F350 25S140E DCT DAPPA DCT OTLAM Y161 OVNOM DCT SANAD/N0344F190 V779 LAXUM |
| Aircraft | A21N/M-SDE2E3FGHIJ1RWXY/LB1 |
Departure
| Time | 2026-05-04 11:34 |
|---|---|
| Airport | Denpasar I Gusti Ngurah Rai International Airport (WADD) |
Arrival
| Time | N/A |
|---|---|
| Airport | Newcastle Airport (YWLM) |
| Time | Latitude | Longitude | Altitude | Speed | Heading |
|---|---|---|---|---|---|
| 2026-05-04 10:56 | -8.74548 | 115.16802 | 38 ft | 0 kts | 358° |
| 2026-05-04 11:22 | -8.74556 | 115.16802 | 37 ft | 4 kts | 358° |
| 2026-05-04 11:22 | -8.74583 | 115.16803 | 38 ft | 4 kts | 358° |
| 2026-05-04 11:23 | -8.74610 | 115.16805 | 37 ft | 4 kts | 358° |
| 2026-05-04 11:23 | -8.74637 | 115.16806 | 38 ft | 4 kts | 358° |
| 2026-05-04 11:24 | -8.74673 | 115.16928 | 37 ft | 4 kts | 268° |
| 2026-05-04 11:25 | -8.74672 | 115.16954 | 37 ft | 2 kts | 268° |
| 2026-05-04 11:25 | -8.74672 | 115.16957 | 37 ft | 0 kts | 268° |
| 2026-05-04 11:27 | -8.74674 | 115.16797 | 37 ft | 8 kts | 269° |
| 2026-05-04 11:28 | -8.74677 | 115.16732 | 37 ft | 10 kts | 266° |
| 2026-05-04 11:28 | -8.74681 | 115.16657 | 37 ft | 11 kts | 266° |
| 2026-05-04 11:28 | -8.74686 | 115.16577 | 38 ft | 12 kts | 267° |
| 2026-05-04 11:28 | -8.74690 | 115.16482 | 38 ft | 14 kts | 268° |
| 2026-05-04 11:29 | -8.74693 | 115.16376 | 38 ft | 16 kts | 268° |
| 2026-05-04 11:29 | -8.74698 | 115.16258 | 38 ft | 17 kts | 268° |
| 2026-05-04 11:29 | -8.74703 | 115.16137 | 38 ft | 17 kts | 268° |
| 2026-05-04 11:29 | -8.74708 | 115.16016 | 38 ft | 17 kts | 268° |
| 2026-05-04 11:31 | -8.74793 | 115.15390 | 36 ft | 0 kts | 174° |
| 2026-05-04 11:33 | -8.74893 | 115.15508 | 34 ft | 0 kts | 86° |
| 2026-05-04 11:33 | -8.74889 | 115.15646 | 34 ft | 53 kts | 88° |
| 2026-05-04 11:33 | -8.74864 | 115.16256 | 33 ft | 117 kts | 88° |
| 2026-05-04 11:34 | -8.74828 | 115.17259 | 48 ft | 163 kts | 88° |
| 2026-05-04 11:34 | -8.74792 | 115.18352 | 651 ft | 152 kts | 89° |
| 2026-05-04 11:34 | -8.74743 | 115.19445 | 1116 ft | 158 kts | 90° |
| 2026-05-04 11:34 | -8.74700 | 115.20597 | 1454 ft | 174 kts | 89° |
| 2026-05-04 11:35 | -8.74655 | 115.21899 | 1740 ft | 195 kts | 89° |
| 2026-05-04 11:35 | -8.74599 | 115.23327 | 2134 ft | 211 kts | 88° |
| 2026-05-04 11:35 | -8.74559 | 115.24344 | 2283 ft | 227 kts | 88° |
| 2026-05-04 11:35 | -8.74510 | 115.26602 | 2782 ft | 249 kts | 96° |
| 2026-05-04 11:36 | -8.74758 | 115.27742 | 3151 ft | 253 kts | 111° |
| 2026-05-04 11:36 | -8.75719 | 115.29241 | 3753 ft | 259 kts | 135° |
| 2026-05-04 11:36 | -8.77259 | 115.30206 | 4404 ft | 265 kts | 159° |
| 2026-05-04 11:36 | -8.79053 | 115.30685 | 5033 ft | 269 kts | 165° |
| 2026-05-04 11:37 | -8.80891 | 115.31090 | 5607 ft | 273 kts | 165° |
| 2026-05-04 11:37 | -8.82758 | 115.31516 | 6224 ft | 275 kts | 164° |
| 2026-05-04 11:37 | -8.84626 | 115.31961 | 6819 ft | 277 kts | 164° |
| 2026-05-04 11:37 | -8.86498 | 115.32420 | 7440 ft | 277 kts | 164° |
| 2026-05-04 11:38 | -8.88383 | 115.32893 | 7956 ft | 283 kts | 161° |
| 2026-05-04 11:38 | -8.90163 | 115.33751 | 8432 ft | 284 kts | 141° |
| 2026-05-04 11:38 | -8.91661 | 115.35037 | 9057 ft | 283 kts | 135° |
| 2026-05-04 11:38 | -8.93106 | 115.36391 | 9702 ft | 283 kts | 135° |
| 2026-05-04 11:39 | -8.94562 | 115.37748 | 10191 ft | 288 kts | 136° |
| 2026-05-04 11:39 | -8.96070 | 115.39139 | 10456 ft | 301 kts | 136° |
| 2026-05-04 11:40 | -9.06416 | 115.48516 | 12776 ft | 345 kts | 137° |
| 2026-05-04 11:41 | -9.08207 | 115.50139 | 13334 ft | 346 kts | 138° |
| 2026-05-04 11:41 | -9.09999 | 115.51760 | 13935 ft | 344 kts | 138° |
| 2026-05-04 11:41 | -9.11761 | 115.53351 | 14389 ft | 347 kts | 138° |
| 2026-05-04 11:41 | -9.13577 | 115.54994 | 14698 ft | 353 kts | 138° |
| 2026-05-04 11:42 | -9.15428 | 115.56668 | 15058 ft | 358 kts | 138° |
| 2026-05-04 11:42 | -9.17290 | 115.58351 | 15488 ft | 360 kts | 138° |
| 2026-05-04 11:42 | -9.19165 | 115.60046 | 15894 ft | 364 kts | 138° |
| 2026-05-04 11:42 | -9.21066 | 115.61764 | 16233 ft | 368 kts | 139° |
| 2026-05-04 11:43 | -9.22986 | 115.63502 | 16591 ft | 372 kts | 138° |
| 2026-05-04 11:43 | -9.24923 | 115.65254 | 17011 ft | 374 kts | 139° |
| 2026-05-04 11:43 | -9.26870 | 115.67009 | 17438 ft | 376 kts | 139° |
| 2026-05-04 11:43 | -9.28825 | 115.68779 | 17831 ft | 378 kts | 139° |
| 2026-05-04 11:44 | -9.30798 | 115.70564 | 18187 ft | 382 kts | 139° |
| 2026-05-04 11:44 | -9.32789 | 115.72361 | 18496 ft | 385 kts | 139° |
| 2026-05-04 11:44 | -9.34780 | 115.74163 | 18775 ft | 388 kts | 139° |
| 2026-05-04 11:44 | -9.36813 | 115.76006 | 19096 ft | 391 kts | 139° |
| 2026-05-04 11:45 | -9.38838 | 115.77845 | 19433 ft | 392 kts | 139° |
| 2026-05-04 11:45 | -9.40877 | 115.79693 | 19730 ft | 395 kts | 139° |
| 2026-05-04 11:45 | -9.42928 | 115.81556 | 20069 ft | 397 kts | 139° |
| 2026-05-04 11:45 | -9.44991 | 115.83428 | 20397 ft | 398 kts | 139° |
| 2026-05-04 11:46 | -9.47059 | 115.85302 | 20705 ft | 401 kts | 139° |
| 2026-05-04 11:46 | -9.49143 | 115.87192 | 21007 ft | 403 kts | 139° |
| 2026-05-04 11:46 | -9.51237 | 115.89092 | 21325 ft | 405 kts | 139° |
| 2026-05-04 11:46 | -9.53318 | 115.90973 | 21620 ft | 408 kts | 139° |
| 2026-05-04 11:47 | -9.55438 | 115.92893 | 21926 ft | 410 kts | 139° |
| 2026-05-04 11:47 | -9.57568 | 115.94824 | 22212 ft | 412 kts | 139° |
| 2026-05-04 11:47 | -9.59712 | 115.96766 | 22525 ft | 415 kts | 139° |
| 2026-05-04 11:47 | -9.61866 | 115.98720 | 22809 ft | 417 kts | 139° |
| 2026-05-04 11:48 | -9.64032 | 116.00693 | 23103 ft | 419 kts | 139° |
| 2026-05-04 11:48 | -9.66204 | 116.02666 | 23423 ft | 420 kts | 139° |
| 2026-05-04 11:48 | -9.68387 | 116.04650 | 23642 ft | 423 kts | 139° |
| 2026-05-04 11:48 | -9.70579 | 116.06644 | 23868 ft | 424 kts | 139° |
| 2026-05-04 11:49 | -9.72779 | 116.08642 | 24071 ft | 427 kts | 139° |
| 2026-05-04 11:49 | -9.75000 | 116.10659 | 24257 ft | 430 kts | 139° |
| 2026-05-04 11:49 | -9.77230 | 116.12683 | 24491 ft | 431 kts | 139° |
| 2026-05-04 11:49 | -9.79465 | 116.14717 | 24741 ft | 432 kts | 139° |
| 2026-05-04 11:50 | -9.81585 | 116.16646 | 24969 ft | 432 kts | 139° |
| 2026-05-04 11:50 | -9.83829 | 116.18686 | 25208 ft | 433 kts | 139° |
| 2026-05-04 11:50 | -9.86081 | 116.20732 | 25396 ft | 436 kts | 139° |
| 2026-05-04 11:50 | -9.88342 | 116.22788 | 25583 ft | 438 kts | 139° |
| 2026-05-04 11:51 | -9.90616 | 116.24857 | 25777 ft | 440 kts | 139° |
| 2026-05-04 11:51 | -9.92904 | 116.26937 | 26002 ft | 441 kts | 139° |
| 2026-05-04 11:51 | -9.95186 | 116.29014 | 26262 ft | 441 kts | 139° |
| 2026-05-04 11:51 | -9.97472 | 116.31091 | 26529 ft | 441 kts | 139° |
| 2026-05-04 11:52 | -9.99760 | 116.33174 | 26736 ft | 443 kts | 139° |
| 2026-05-04 11:52 | -10.02060 | 116.35269 | 26860 ft | 446 kts | 139° |
| 2026-05-04 11:52 | -10.04374 | 116.37374 | 27022 ft | 448 kts | 139° |
| 2026-05-04 11:52 | -10.06700 | 116.39494 | 27155 ft | 451 kts | 139° |
| 2026-05-04 11:53 | -10.09041 | 116.41631 | 27336 ft | 453 kts | 139° |
| 2026-05-04 11:53 | -10.11387 | 116.43771 | 27531 ft | 454 kts | 139° |
| 2026-05-04 11:53 | -10.13736 | 116.45913 | 27772 ft | 453 kts | 139° |
| 2026-05-04 11:53 | -10.16078 | 116.48056 | 28014 ft | 454 kts | 139° |
| 2026-05-04 11:55 | -10.32318 | 116.63574 | 29180 ft | 464 kts | 138° |
| 2026-05-04 11:55 | -10.34673 | 116.65826 | 29301 ft | 466 kts | 138° |
| 2026-05-04 11:56 | -10.37034 | 116.68090 | 29459 ft | 467 kts | 138° |
| 2026-05-04 11:56 | -10.39393 | 116.70358 | 29687 ft | 467 kts | 138° |